Time;durP1;ratioP1;P1;durP2;ratioP2;P2;SDS_P1;SDS_P2;PMS_P1;PMS_P2;Temp;Humidity;BMP_temperature;BMP_pressure;BME280_temperature;BME280_humidity;BME280_pressure;Samples;Min_cycle;Max_cycle;Signal;HPM_P1;HPM_P2
2021/10/24 00:00:55;;;;;;;2.80;1.60;;;22.50;50.10;;;;;;4981274;28;20157;-49
2021/10/24 00:03:20;;;;;;;3.90;1.30;;;22.50;50.20;;;;;;4986144;28;20062;-59
2021/10/24 00:05:46;;;;;;;4.00;1.63;;;22.50;50.20;;;;;;4982526;28;20051;-58
2021/10/24 00:08:12;;;;;;;3.78;1.50;;;22.40;50.20;;;;;;4983711;28;20105;-55
2021/10/24 00:10:37;;;;;;;3.83;1.40;;;22.40;50.20;;;;;;4981383;28;20030;-57
2021/10/24 00:13:03;;;;;;;3.47;1.50;;;22.40;50.20;;;;;;4983633;28;20030;-59
2021/10/24 00:15:29;;;;;;;3.13;1.20;;;22.40;50.20;;;;;;4982950;28;20053;-56
2021/10/24 00:17:55;;;;;;;2.20;1.20;;;22.40;50.20;;;;;;4976747;28;20038;-58
2021/10/24 00:20:20;;;;;;;3.50;1.65;;;22.40;50.30;;;;;;4980033;28;20121;-54
2021/10/24 00:22:46;;;;;;;3.63;1.60;;;22.30;50.20;;;;;;4977014;28;20037;-58
2021/10/24 00:25:11;;;;;;;3.00;1.50;;;22.30;50.30;;;;;;4984589;28;20026;-59
2021/10/24 00:27:37;;;;;;;2.38;1.20;;;22.30;50.30;;;;;;4982959;28;20061;-57
2021/10/24 00:30:05;;;;;;;2.45;1.30;;;22.30;50.30;;;;;;4983469;28;20034;-52
2021/10/24 00:32:30;;;;;;;2.28;1.50;;;22.30;50.30;;;;;;4985464;28;20070;-55
2021/10/24 00:34:56;;;;;;;3.00;1.48;;;22.20;50.30;;;;;;4982847;28;20081;-53
2021/10/24 00:37:22;;;;;;;2.97;1.50;;;22.20;50.30;;;;;;4982388;28;20108;-50
2021/10/24 00:39:47;;;;;;;2.15;1.38;;;22.20;50.30;;;;;;4981676;28;20106;-54
2021/10/24 00:42:13;;;;;;;3.08;1.20;;;22.20;50.40;;;;;;4986070;28;20034;-47
2021/10/24 00:44:39;;;;;;;3.10;1.27;;;22.20;50.40;;;;;;4990061;28;20104;-58
2021/10/24 00:47:06;;;;;;;2.30;1.25;;;22.10;50.30;;;;;;4985385;28;20084;-53
2021/10/24 00:49:34;;;;;;;2.65;1.20;;;22.20;50.40;;;;;;4982525;28;20030;-51
2021/10/24 00:52:00;;;;;;;1.95;1.30;;;22.20;50.40;;;;;;4984595;28;20038;-53
2021/10/24 00:54:27;;;;;;;2.42;1.23;;;22.10;50.40;;;;;;4983516;28;20030;-58
2021/10/24 00:56:54;;;;;;;3.67;1.30;;;22.10;50.40;;;;;;4988919;28;20041;-50
2021/10/24 00:59:21;;;;;;;2.40;1.30;;;22.10;50.40;;;;;;4981671;28;20019;-48
2021/10/24 01:01:47;;;;;;;3.17;1.40;;;22.10;50.40;;;;;;4985269;28;20077;-56
2021/10/24 01:04:13;;;;;;;1.95;1.20;;;22.00;50.50;;;;;;4987121;28;20039;-58
2021/10/24 01:06:40;;;;;;;2.65;1.38;;;22.00;50.40;;;;;;4981633;28;20084;-55
2021/10/24 01:09:14;;;;;;;1.60;1.20;;;22.00;50.50;;;;;;4987103;28;20484;-54
2021/10/24 01:11:41;;;;;;;2.25;1.23;;;22.00;50.50;;;;;;4986291;28;20042;-52
2021/10/24 01:14:11;;;;;;;2.03;1.25;;;22.00;50.50;;;;;;4987969;28;20038;-56
2021/10/24 01:16:40;;;;;;;3.05;1.33;;;22.00;50.50;;;;;;4986618;28;20027;-54
2021/10/24 01:19:07;;;;;;;2.63;1.52;;;22.00;50.50;;;;;;4982346;28;20038;-49
2021/10/24 01:21:33;;;;;;;1.77;1.02;;;21.90;50.40;;;;;;4986972;28;20370;-52
2021/10/24 01:24:00;;;;;;;1.83;1.20;;;21.90;50.50;;;;;;4987616;28;20472;-48
2021/10/24 01:26:26;;;;;;;2.17;1.20;;;21.90;50.50;;;;;;4987046;28;20074;-58
2021/10/24 01:28:53;;;;;;;2.35;1.17;;;21.90;50.50;;;;;;4988122;28;20054;-53
2021/10/24 01:31:19;;;;;;;2.08;1.08;;;21.90;50.50;;;;;;4991664;28;20799;-48
2021/10/24 01:33:44;;;;;;;2.60;1.20;;;21.90;50.50;;;;;;4985603;28;20154;-59
2021/10/24 01:36:11;;;;;;;2.47;1.20;;;21.90;50.60;;;;;;4988384;28;20034;-58
2021/10/24 01:38:38;;;;;;;2.08;1.13;;;21.90;50.50;;;;;;4987057;28;20034;-52
2021/10/24 01:41:08;;;;;;;2.08;1.13;;;21.90;50.60;;;;;;4982190;28;20053;-59
2021/10/24 01:43:33;;;;;;;2.65;1.30;;;21.80;50.50;;;;;;4989745;28;20113;-53
2021/10/24 01:45:59;;;;;;;2.22;1.15;;;21.80;50.60;;;;;;4987884;28;20132;-54
2021/10/24 01:48:25;;;;;;;2.97;1.23;;;21.80;50.60;;;;;;4989977;28;20037;-49
2021/10/24 01:50:53;;;;;;;1.90;1.02;;;21.80;50.60;;;;;;4985565;28;20066;-50
2021/10/24 01:53:24;;;;;;;1.90;1.23;;;21.80;50.60;;;;;;4983786;28;20061;-58
2021/10/24 01:55:50;;;;;;;2.47;1.20;;;21.80;50.60;;;;;;4996142;28;20076;-55
2021/10/24 01:58:15;;;;;;;2.50;1.42;;;21.70;50.50;;;;;;4985605;28;20435;-53
2021/10/24 02:00:42;;;;;;;2.55;1.20;;;21.80;50.60;;;;;;4994764;28;20563;-53
2021/10/24 02:03:09;;;;;;;2.22;1.27;;;21.70;50.60;;;;;;4993578;28;20789;-58
2021/10/24 02:05:35;;;;;;;1.92;1.10;;;21.70;50.60;;;;;;4986615;28;20478;-53
2021/10/24 02:08:01;;;;;;;2.25;1.33;;;21.70;50.60;;;;;;4988652;28;20038;-51
2021/10/24 02:10:27;;;;;;;2.17;1.10;;;21.70;50.60;;;;;;4973296;28;20027;-53
2021/10/24 02:12:52;;;;;;;2.70;1.13;;;21.70;50.70;;;;;;4988327;28;20030;-58
2021/10/24 02:15:18;;;;;;;1.75;1.02;;;21.70;50.60;;;;;;4983192;28;20029;-55
2021/10/24 02:17:43;;;;;;;1.88;1.10;;;21.70;50.60;;;;;;4988616;28;20034;-55
2021/10/24 02:20:10;;;;;;;2.35;1.13;;;21.70;50.70;;;;;;4988765;28;20506;-57
2021/10/24 02:22:36;;;;;;;1.73;1.10;;;21.70;50.60;;;;;;4978973;28;20061;-61
2021/10/24 02:25:04;;;;;;;2.65;1.20;;;21.60;50.60;;;;;;4984909;28;20049;-53
2021/10/24 02:27:29;;;;;;;2.40;1.50;;;21.60;50.60;;;;;;4982028;28;20069;-59
2021/10/24 02:29:55;;;;;;;2.55;1.30;;;21.60;51.20;;;;;;4987522;28;20062;-59
2021/10/24 02:32:20;;;;;;;1.83;1.08;;;21.60;50.70;;;;;;4984430;28;20975;-58
2021/10/24 02:34:46;;;;;;;2.83;1.10;;;21.60;50.70;;;;;;4981579;28;20027;-60
2021/10/24 02:37:11;;;;;;;2.40;1.10;;;21.60;50.70;;;;;;4983198;28;20049;-56
2021/10/24 02:39:37;;;;;;;2.22;1.20;;;21.60;50.70;;;;;;4985610;28;20119;-59
2021/10/24 02:42:03;;;;;;;1.40;1.00;;;21.50;50.70;;;;;;4981436;28;20622;-53
2021/10/24 02:44:29;;;;;;;2.03;1.20;;;21.60;50.70;;;;;;4987939;28;20041;-60
2021/10/24 02:46:58;;;;;;;1.70;1.17;;;21.60;50.70;;;;;;4986272;28;20079;-60
2021/10/24 02:49:24;;;;;;;3.28;1.10;;;21.50;51.20;;;;;;4988325;28;20080;-58
2021/10/24 02:51:50;;;;;;;1.88;1.10;;;21.50;50.70;;;;;;4982115;28;20492;-60
2021/10/24 02:54:17;;;;;;;1.65;1.00;;;21.50;50.70;;;;;;4983945;28;20022;-51
2021/10/24 02:56:42;;;;;;;2.05;1.20;;;21.50;50.70;;;;;;4985717;28;20110;-61
2021/10/24 02:59:08;;;;;;;1.90;1.10;;;21.50;50.70;;;;;;4985659;28;20105;-60
2021/10/24 03:01:33;;;;;;;2.13;1.20;;;21.50;50.70;;;;;;4986658;28;20045;-60
2021/10/24 03:04:00;;;;;;;2.08;1.10;;;21.50;50.70;;;;;;4981547;28;20320;-54
2021/10/24 03:06:26;;;;;;;2.53;1.33;;;21.50;51.30;;;;;;4985318;28;20122;-53
2021/10/24 03:08:51;;;;;;;1.77;1.10;;;21.50;50.70;;;;;;4995546;28;20459;-54
2021/10/24 03:11:17;;;;;;;1.90;1.13;;;21.50;50.70;;;;;;4984075;28;20034;-51
2021/10/24 03:13:42;;;;;;;1.90;1.15;;;21.50;50.70;;;;;;4980930;28;20103;-60
2021/10/24 03:16:08;;;;;;;1.80;1.05;;;21.50;50.70;;;;;;4986266;28;20098;-54
2021/10/24 03:18:33;;;;;;;1.55;1.05;;;21.40;50.70;;;;;;4978739;28;20022;-57
2021/10/24 03:20:59;;;;;;;2.00;1.10;;;21.40;50.70;;;;;;4979425;28;20413;-60
2021/10/24 03:23:25;;;;;;;2.72;1.30;;;21.40;50.70;;;;;;4982393;28;20686;-56
2021/10/24 03:25:50;;;;;;;2.03;1.10;;;21.40;50.70;;;;;;4992269;28;20052;-54
2021/10/24 03:28:16;;;;;;;2.13;1.13;;;21.40;50.70;;;;;;4985331;28;20045;-47
2021/10/24 03:30:41;;;;;;;2.95;1.30;;;21.40;50.70;;;;;;4986051;28;20050;-60
2021/10/24 03:33:07;;;;;;;2.03;1.10;;;21.40;50.70;;;;;;4986710;28;20030;-55
2021/10/24 03:35:33;;;;;;;1.90;1.10;;;21.40;51.20;;;;;;4989231;28;20030;-59
2021/10/24 03:37:59;;;;;;;1.90;0.95;;;21.40;50.70;;;;;;4985343;28;20185;-53
2021/10/24 03:40:24;;;;;;;1.60;1.00;;;21.40;50.80;;;;;;4985021;28;20589;-52
2021/10/24 03:42:50;;;;;;;2.53;1.27;;;21.40;50.70;;;;;;4987179;28;20022;-60
2021/10/24 03:45:16;;;;;;;1.70;1.10;;;21.30;50.70;;;;;;4984001;28;20029;-59
2021/10/24 03:47:42;;;;;;;2.42;1.20;;;21.40;50.80;;;;;;4986221;28;20148;-51
2021/10/24 03:50:08;;;;;;;1.60;1.00;;;21.40;50.70;;;;;;4980105;28;20053;-51
2021/10/24 03:52:34;;;;;;;1.67;1.13;;;21.40;50.80;;;;;;4982690;28;20034;-58
2021/10/24 03:54:59;;;;;;;1.88;1.15;;;21.30;50.80;;;;;;4973234;28;20628;-58
2021/10/24 03:57:25;;;;;;;3.83;1.20;;;21.30;50.80;;;;;;4985889;28;20124;-51
2021/10/24 03:59:50;;;;;;;2.17;1.10;;;21.30;50.80;;;;;;4984244;28;20118;-59
2021/10/24 04:02:16;;;;;;;1.65;0.93;;;21.30;50.80;;;;;;4984592;28;20581;-59
2021/10/24 04:04:44;;;;;;;1.88;1.00;;;21.30;50.80;;;;;;4979193;28;20042;-56
2021/10/24 04:07:10;;;;;;;1.95;1.00;;;21.30;50.80;;;;;;4982059;28;20018;-58
2021/10/24 04:09:36;;;;;;;2.30;1.00;;;21.30;50.80;;;;;;4985143;28;20026;-53
2021/10/24 04:12:02;;;;;;;2.40;1.08;;;21.30;50.80;;;;;;4984925;28;20038;-51
2021/10/24 04:14:28;;;;;;;1.65;1.00;;;21.30;50.80;;;;;;4987737;28;20867;-60
2021/10/24 04:16:54;;;;;;;2.22;1.10;;;21.30;50.80;;;;;;4986362;28;20045;-54
2021/10/24 04:19:19;;;;;;;1.98;1.10;;;21.30;50.80;;;;;;4984722;28;20036;-54
2021/10/24 04:21:45;;;;;;;1.63;1.00;;;21.30;50.80;;;;;;4982190;28;20034;-61
2021/10/24 04:24:11;;;;;;;1.58;0.95;;;21.30;50.80;;;;;;4982225;28;20146;-58
2021/10/24 04:26:37;;;;;;;1.45;1.00;;;21.20;50.80;;;;;;4985699;28;20113;-60
2021/10/24 04:29:03;;;;;;;1.40;0.90;;;21.30;50.80;;;;;;4984524;28;20467;-59
2021/10/24 04:31:29;;;;;;;1.20;0.90;;;21.30;50.80;;;;;;4984332;28;20039;-59
2021/10/24 04:33:54;;;;;;;1.90;1.10;;;21.30;50.80;;;;;;4987076;28;20565;-60
2021/10/24 04:36:20;;;;;;;1.88;1.02;;;21.20;50.80;;;;;;4982355;28;20034;-60
2021/10/24 04:38:46;;;;;;;1.70;1.00;;;21.20;51.30;;;;;;4988040;28;20478;-53
2021/10/24 04:41:11;;;;;;;1.33;1.00;;;21.20;50.80;;;;;;4983937;28;20395;-60
2021/10/24 04:43:37;;;;;;;1.42;1.00;;;21.20;50.80;;;;;;4991244;28;20022;-59
2021/10/24 04:46:03;;;;;;;1.40;0.95;;;21.20;50.80;;;;;;4989499;28;20081;-60
2021/10/24 04:48:29;;;;;;;1.33;0.80;;;21.20;50.80;;;;;;4989865;28;20058;-55
2021/10/24 04:50:54;;;;;;;1.70;0.98;;;21.20;50.80;;;;;;4993261;28;20133;-61
2021/10/24 04:53:20;;;;;;;1.30;0.88;;;21.20;50.80;;;;;;4985191;28;20070;-58
2021/10/24 04:55:46;;;;;;;2.03;0.90;;;21.20;50.80;;;;;;4986621;28;20030;-59
2021/10/24 04:58:11;;;;;;;1.45;0.95;;;21.20;50.80;;;;;;4989913;28;20030;-56
2021/10/24 05:00:38;;;;;;;1.55;0.90;;;21.20;50.80;;;;;;4985675;28;20121;-59
2021/10/24 05:03:03;;;;;;;1.42;1.00;;;21.20;50.80;;;;;;4983513;28;20391;-56
2021/10/24 05:05:29;;;;;;;1.08;0.90;;;21.20;50.80;;;;;;4986631;28;20032;-56
2021/10/24 05:07:55;;;;;;;1.63;1.00;;;21.20;50.80;;;;;;4989286;28;20065;-59
2021/10/24 05:10:20;;;;;;;1.13;0.80;;;21.20;50.80;;;;;;4983533;28;20686;-58
2021/10/24 05:12:46;;;;;;;1.08;0.80;;;21.10;50.80;;;;;;4981789;28;20034;-56
2021/10/24 05:15:11;;;;;;;1.48;0.93;;;21.20;50.80;;;;;;4983714;28;20041;-52
2021/10/24 05:17:37;;;;;;;1.48;1.00;;;21.10;50.80;;;;;;4984184;28;20038;-56
2021/10/24 05:20:05;;;;;;;1.30;0.93;;;21.10;50.80;;;;;;4986013;28;20114;-59
2021/10/24 05:22:31;;;;;;;1.52;1.00;;;21.10;50.80;;;;;;4988291;28;20026;-58
2021/10/24 05:24:57;;;;;;;1.52;0.90;;;21.10;50.80;;;;;;4984133;28;20042;-60
2021/10/24 05:27:22;;;;;;;1.42;1.00;;;21.10;50.80;;;;;;4984599;28;20085;-60
2021/10/24 05:29:48;;;;;;;1.30;0.90;;;21.10;50.80;;;;;;4988128;28;20034;-52
2021/10/24 05:32:13;;;;;;;1.30;0.80;;;21.10;50.80;;;;;;4989622;28;20130;-59
2021/10/24 05:34:39;;;;;;;1.67;0.95;;;21.10;50.80;;;;;;4988126;28;20031;-60
2021/10/24 05:37:05;;;;;;;1.38;0.80;;;21.10;50.80;;;;;;4976037;28;20034;-57
2021/10/24 05:39:31;;;;;;;1.35;1.00;;;21.10;50.80;;;;;;4985574;28;20391;-57
2021/10/24 05:41:57;;;;;;;1.70;1.00;;;21.10;50.80;;;;;;4989049;28;20390;-52
2021/10/24 05:44:22;;;;;;;1.02;0.85;;;21.10;50.80;;;;;;4985949;28;20388;-60
2021/10/24 05:46:48;;;;;;;1.40;0.82;;;21.10;50.80;;;;;;4973926;28;20046;-53
2021/10/24 05:49:15;;;;;;;0.98;0.77;;;21.10;50.80;;;;;;4985800;28;20062;-59
2021/10/24 05:51:41;;;;;;;1.13;0.80;;;21.10;50.80;;;;;;4984623;28;20558;-61
2021/10/24 05:54:07;;;;;;;1.58;0.95;;;21.10;50.80;;;;;;4978936;28;20113;-61
2021/10/24 05:56:32;;;;;;;1.38;0.90;;;21.10;50.80;;;;;;4982368;28;20494;-54
2021/10/24 05:58:58;;;;;;;2.25;1.00;;;21.10;50.90;;;;;;4987279;28;20195;-57
2021/10/24 06:01:23;;;;;;;1.17;0.80;;;21.10;50.80;;;;;;4987270;28;20038;-58
2021/10/24 06:03:49;;;;;;;0.95;0.73;;;21.10;50.80;;;;;;4983530;28;20033;-57
2021/10/24 06:06:15;;;;;;;1.55;1.00;;;21.10;50.90;;;;;;4984966;28;20693;-57
2021/10/24 06:08:41;;;;;;;1.33;0.98;;;21.10;50.90;;;;;;4976246;28;20125;-56
2021/10/24 06:11:46;;;;;;;1.40;0.90;;;21.10;50.90;;;;;;4985133;28;20053;-55
2021/10/24 06:13:59;;;;;;;2.08;1.20;;;21.10;50.90;;;;;;4984197;28;20046;-60
2021/10/24 06:16:25;;;;;;;1.60;1.00;;;21.00;50.90;;;;;;4984657;28;20385;-59
2021/10/24 06:18:51;;;;;;;1.55;0.95;;;21.00;51.00;;;;;;4984872;28;20038;-58
2021/10/24 06:21:16;;;;;;;1.50;1.00;;;21.00;51.00;;;;;;4984630;28;20034;-58
2021/10/24 06:23:42;;;;;;;1.75;1.20;;;21.00;51.00;;;;;;4988082;28;20032;-59
2021/10/24 06:26:08;;;;;;;1.30;0.98;;;21.00;51.00;;;;;;4987523;28;20619;-60
2021/10/24 06:28:33;;;;;;;1.38;0.90;;;21.00;51.00;;;;;;4977843;28;20015;-55
2021/10/24 06:30:59;;;;;;;2.22;1.20;;;21.00;51.00;;;;;;4981467;28;20034;-51
2021/10/24 06:33:24;;;;;;;1.90;0.90;;;21.00;51.00;;;;;;4987399;28;20362;-51
2021/10/24 06:35:50;;;;;;;1.60;1.00;;;21.00;51.00;;;;;;4977387;28;20455;-57
2021/10/24 06:38:17;;;;;;;2.40;1.00;;;21.00;51.00;;;;;;4984936;28;20109;-61
2021/10/24 06:40:44;;;;;;;1.38;0.90;;;21.00;51.00;;;;;;4984295;28;20048;-51
2021/10/24 06:43:10;;;;;;;1.88;0.90;;;21.00;51.00;;;;;;4985413;28;20219;-52
2021/10/24 06:45:36;;;;;;;1.35;0.90;;;21.00;51.00;;;;;;4981908;28;20614;-58
2021/10/24 06:48:04;;;;;;;1.08;0.80;;;21.00;51.00;;;;;;4987244;28;20034;-53
2021/10/24 06:50:29;;;;;;;2.33;0.90;;;21.00;51.10;;;;;;4984681;28;20157;-59
2021/10/24 06:52:55;;;;;;;1.48;0.90;;;21.00;51.00;;;;;;4983477;28;20114;-59
2021/10/24 06:55:21;;;;;;;1.60;0.90;;;21.00;51.10;;;;;;4980849;28;20648;-49
2021/10/24 06:57:52;;;;;;;1.42;0.90;;;21.00;51.10;;;;;;4985161;28;20041;-58
2021/10/24 07:00:22;;;;;;;1.60;0.80;;;21.00;51.10;;;;;;4982161;28;20918;-54
2021/10/24 07:02:49;;;;;;;1.90;1.00;;;21.00;51.10;;;;;;4993905;28;20026;-47
2021/10/24 07:05:15;;;;;;;1.42;0.77;;;21.00;51.10;;;;;;4985695;28;20058;-57
2021/10/24 07:07:41;;;;;;;1.88;0.90;;;21.00;51.10;;;;;;4984238;28;20030;-53
2021/10/24 07:10:09;;;;;;;1.35;0.90;;;21.00;51.10;;;;;;4982638;28;20040;-48
2021/10/24 07:12:36;;;;;;;1.17;0.85;;;21.00;51.10;;;;;;4986985;28;20065;-50
2021/10/24 07:15:03;;;;;;;1.27;0.85;;;21.00;51.10;;;;;;4983966;28;20118;-57
2021/10/24 07:17:29;;;;;;;1.58;0.90;;;21.00;51.10;;;;;;4975588;28;20027;-57
2021/10/24 07:19:54;;;;;;;1.65;1.00;;;20.90;51.00;;;;;;4986312;28;20046;-56
2021/10/24 07:22:20;;;;;;;1.60;0.90;;;21.00;51.10;;;;;;4980194;28;20141;-55
2021/10/24 07:24:46;;;;;;;2.00;1.10;;;20.90;51.00;;;;;;4977678;28;20039;-49
2021/10/24 07:27:11;;;;;;;2.05;1.00;;;20.90;51.00;;;;;;4978521;28;20030;-59
2021/10/24 07:29:37;;;;;;;1.40;0.80;;;20.90;51.00;;;;;;4984035;28;20128;-57
2021/10/24 07:32:03;;;;;;;1.17;0.80;;;20.90;51.00;;;;;;4982670;28;20101;-56
2021/10/24 07:34:28;;;;;;;1.42;1.00;;;20.90;51.00;;;;;;4986731;28;20045;-59
2021/10/24 07:36:54;;;;;;;1.70;1.00;;;20.90;51.00;;;;;;4981491;28;20138;-62
2021/10/24 07:39:20;;;;;;;2.17;1.10;;;20.90;51.10;;;;;;4978957;28;20386;-52
2021/10/24 07:41:46;;;;;;;1.67;1.00;;;21.00;51.10;;;;;;4977058;28;20070;-51
2021/10/24 07:44:17;;;;;;;1.90;1.00;;;20.90;51.10;;;;;;4986108;28;20068;-53
2021/10/24 07:46:43;;;;;;;3.03;1.10;;;20.90;51.10;;;;;;4978816;28;20034;-60
2021/10/24 07:49:09;;;;;;;1.30;0.80;;;20.90;51.10;;;;;;4980266;28;20034;-55
2021/10/24 07:51:35;;;;;;;1.88;1.00;;;20.90;51.10;;;;;;4979781;28;20331;-59
2021/10/24 07:54:03;;;;;;;1.77;1.10;;;20.90;51.20;;;;;;4981434;28;20037;-59
2021/10/24 07:56:29;;;;;;;2.22;0.90;;;20.90;51.40;;;;;;4973560;28;20034;-51
2021/10/24 07:58:56;;;;;;;1.95;1.05;;;20.90;51.60;;;;;;4979329;28;20417;-58
2021/10/24 08:01:21;;;;;;;2.30;1.00;;;20.90;51.60;;;;;;4976509;28;20039;-58
2021/10/24 08:03:48;;;;;;;2.67;1.10;;;20.90;51.70;;;;;;4982938;28;20440;-60
2021/10/24 08:06:16;;;;;;;1.45;0.95;;;20.90;51.70;;;;;;4982251;28;20746;-59
2021/10/24 08:08:42;;;;;;;1.77;1.02;;;20.90;51.80;;;;;;4983380;28;20030;-58
2021/10/24 08:11:08;;;;;;;1.70;0.90;;;20.90;51.90;;;;;;4982188;28;20628;-60
2021/10/24 08:13:34;;;;;;;1.55;0.90;;;20.90;51.90;;;;;;4986649;28;20038;-60
2021/10/24 08:16:01;;;;;;;1.67;0.95;;;21.00;52.00;;;;;;4987583;28;20034;-59
2021/10/24 08:18:26;;;;;;;2.22;1.00;;;20.90;52.10;;;;;;4979875;28;20033;-61
2021/10/24 08:20:52;;;;;;;2.95;0.90;;;20.90;52.20;;;;;;4983073;28;20044;-56
2021/10/24 08:23:19;;;;;;;3.05;1.00;;;21.00;52.30;;;;;;4994278;28;20509;-59
2021/10/24 08:25:45;;;;;;;1.65;1.00;;;20.90;52.20;;;;;;4987370;28;20038;-60
2021/10/24 08:28:11;;;;;;;2.25;1.00;;;20.90;52.30;;;;;;4987374;28;20026;-60
2021/10/24 08:30:37;;;;;;;2.80;1.20;;;20.90;52.40;;;;;;4986697;28;20034;-55
2021/10/24 08:33:03;;;;;;;1.92;1.00;;;21.00;52.50;;;;;;4984805;28;20041;-56
2021/10/24 08:35:31;;;;;;;2.20;1.08;;;21.00;52.50;;;;;;4980224;28;20101;-60
2021/10/24 08:37:56;;;;;;;2.67;1.23;;;21.00;52.50;;;;;;4982689;28;20034;-61
2021/10/24 08:40:22;;;;;;;2.55;1.08;;;21.00;52.60;;;;;;4977475;28;20438;-58
2021/10/24 08:42:52;;;;;;;2.67;1.10;;;21.00;52.70;;;;;;4983238;28;20026;-59
2021/10/24 08:45:19;;;;;;;2.10;1.00;;;21.00;52.90;;;;;;4980418;28;20455;-57
2021/10/24 08:47:45;;;;;;;2.30;1.15;;;21.00;53.00;;;;;;4981683;28;20022;-57
2021/10/24 08:50:12;;;;;;;3.03;1.30;;;21.00;53.20;;;;;;4979552;28;20041;-56
2021/10/24 08:52:39;;;;;;;2.22;1.10;;;21.00;53.30;;;;;;4979703;28;20101;-57
2021/10/24 08:55:07;;;;;;;3.78;1.20;;;21.00;53.50;;;;;;4978927;28;20212;-58
2021/10/24 08:57:34;;;;;;;2.42;1.20;;;21.10;53.80;;;;;;4984077;28;20038;-55
2021/10/24 09:00:01;;;;;;;2.42;1.10;;;21.10;54.00;;;;;;4981219;28;20030;-59
2021/10/24 09:02:55;;;;;;;2.53;1.25;;;21.10;53.90;;;;;;4990012;28;20103;-59
2021/10/24 09:05:27;;;;;;;3.83;1.20;;;21.10;54.00;;;;;;4987462;28;20030;-55
2021/10/24 09:07:56;;;;;;;3.17;1.25;;;21.10;54.00;;;;;;4991163;28;20083;-53
2021/10/24 09:10:33;;;;;;;4.28;1.17;;;21.10;53.80;;;;;;4972880;28;20035;-58
2021/10/24 09:13:03;;;;;;;3.28;1.02;;;21.10;53.80;;;;;;4977401;28;20023;-58
2021/10/24 09:15:48;;;;;;;3.53;1.20;;;21.10;53.60;;;;;;4978666;28;20122;-60
2021/10/24 09:18:16;;;;;;;2.15;1.10;;;21.10;53.60;;;;;;4982515;28;20038;-57
2021/10/24 09:20:43;;;;;;;4.68;1.20;;;21.10;53.50;;;;;;4981426;28;20042;-58
2021/10/24 09:23:12;;;;;;;3.50;1.13;;;21.10;53.60;;;;;;4971343;28;20041;-54
2021/10/24 09:25:54;;;;;;;2.80;1.30;;;21.10;53.50;;;;;;4984877;28;20034;-60
2021/10/24 09:28:22;;;;;;;3.05;1.35;;;21.10;53.50;;;;;;4983336;28;20050;-60
2021/10/24 09:30:59;;;;;;;4.25;1.60;;;21.10;53.40;;;;;;4984471;28;20545;-61
2021/10/24 09:33:25;;;;;;;5.75;2.30;;;21.10;53.70;;;;;;4983851;28;20084;-58
2021/10/24 09:35:51;;;;;;;3.00;1.40;;;21.10;53.40;;;;;;4974860;28;20422;-60
2021/10/24 09:38:22;;;;;;;3.90;1.33;;;21.10;53.40;;;;;;4978731;28;20027;-56
2021/10/24 09:40:51;;;;;;;2.83;1.30;;;21.10;53.50;;;;;;4982826;28;20027;-56
2021/10/24 09:43:23;;;;;;;3.60;1.50;;;21.10;53.50;;;;;;4978810;28;20033;-58
2021/10/24 09:45:57;;;;;;;2.33;1.40;;;21.10;53.50;;;;;;4979752;28;20058;-56
2021/10/24 09:48:35;;;;;;;2.60;1.35;;;21.10;53.50;;;;;;4986502;28;20089;-50
2021/10/24 09:51:04;;;;;;;3.10;1.40;;;21.10;53.50;;;;;;4981201;28;20034;-58
2021/10/24 09:53:31;;;;;;;3.00;1.52;;;21.10;53.50;;;;;;4984680;28;20142;-55
2021/10/24 09:55:57;;;;;;;4.18;1.40;;;21.10;53.60;;;;;;4970908;28;20026;-52
2021/10/24 09:58:26;;;;;;;3.40;1.70;;;21.10;53.60;;;;;;4986606;28;20331;-56
2021/10/24 10:00:53;;;;;;;3.03;1.52;;;21.10;53.60;;;;;;4977627;28;20478;-60
2021/10/24 10:03:20;;;;;;;3.00;1.40;;;21.10;53.70;;;;;;4980377;28;20034;-50
2021/10/24 10:05:46;;;;;;;4.35;1.55;;;21.10;53.70;;;;;;4986300;28;20469;-55
2021/10/24 10:08:14;;;;;;;3.63;1.60;;;21.10;53.70;;;;;;4987792;28;20049;-59
2021/10/24 10:10:47;;;;;;;3.40;1.80;;;21.20;53.90;;;;;;4981309;28;20030;-55
2021/10/24 10:13:14;;;;;;;3.20;1.67;;;21.20;53.90;;;;;;4988333;28;20030;-58
2021/10/24 10:15:43;;;;;;;3.92;1.80;;;21.20;53.90;;;;;;4990521;28;20026;-56
2021/10/24 10:18:10;;;;;;;3.33;1.70;;;21.20;54.00;;;;;;4993857;28;20361;-58
2021/10/24 10:20:53;;;;;;;3.55;1.75;;;21.20;54.10;;;;;;4984740;28;20103;-59
2021/10/24 10:23:36;;;;;;;2.88;1.33;;;21.20;54.10;;;;;;4989288;28;20108;-52
2021/10/24 10:26:35;;;;;;;2.50;1.60;;;21.20;54.10;;;;;;4989876;28;20018;-60
2021/10/24 10:29:10;;;;;;;4.18;1.63;;;21.20;54.20;;;;;;4993928;28;20018;-54
2021/10/24 10:31:36;;;;;;;2.90;1.50;;;21.20;54.20;;;;;;4983174;28;20069;-58
2021/10/24 10:34:08;;;;;;;4.82;1.85;;;21.20;54.20;;;;;;4987336;28;20065;-61
2021/10/24 10:36:48;;;;;;;2.88;1.70;;;21.20;54.20;;;;;;4979838;28;20375;-54
2021/10/24 10:39:41;;;;;;;4.30;1.80;;;21.20;54.40;;;;;;4982855;28;20092;-55
2021/10/24 10:42:28;;;;;;;3.40;2.08;;;21.30;54.50;;;;;;4984217;28;20069;-55
2021/10/24 10:45:13;;;;;;;3.22;1.77;;;21.30;54.50;;;;;;4985098;28;20023;-53
2021/10/24 10:47:52;;;;;;;2.90;1.50;;;21.30;54.50;;;;;;4988152;28;20136;-58
2021/10/24 10:50:39;;;;;;;2.60;1.40;;;21.30;54.50;;;;;;4979860;28;20416;-51
2021/10/24 10:53:07;;;;;;;3.08;1.52;;;21.30;54.60;;;;;;4981672;28;20042;-59
2021/10/24 10:56:03;;;;;;;3.87;1.70;;;21.30;54.50;;;;;;4985603;28;20394;-58
2021/10/24 10:58:33;;;;;;;3.95;1.63;;;21.30;54.50;;;;;;4990439;28;20623;-53
2021/10/24 11:01:00;;;;;;;3.03;1.50;;;21.30;54.40;;;;;;4987065;28;20062;-52
2021/10/24 11:03:45;;;;;;;3.13;1.73;;;21.30;54.40;;;;;;4986875;28;20026;-54
2021/10/24 11:06:23;;;;;;;5.15;1.60;;;21.30;54.50;;;;;;4981255;28;20022;-58
2021/10/24 11:08:56;;;;;;;3.42;1.60;;;21.30;54.50;;;;;;4980762;28;20026;-61
2021/10/24 11:11:40;;;;;;;3.70;1.92;;;21.30;54.40;;;;;;4994082;28;20443;-60
2021/10/24 11:14:12;;;;;;;3.42;1.98;;;21.30;54.40;;;;;;4988674;28;20031;-58
2021/10/24 11:16:43;;;;;;;3.40;1.70;;;21.30;54.30;;;;;;4983711;28;20036;-54
2021/10/24 11:21:57;;;;;;;3.20;1.55;;;21.30;54.30;;;;;;4987886;28;20046;-56
2021/10/24 11:24:33;;;;;;;3.85;1.50;;;21.40;54.30;;;;;;4986500;28;20121;-61
2021/10/24 11:27:00;;;;;;;3.90;1.55;;;21.30;54.20;;;;;;4981424;28;20027;-55
2021/10/24 11:29:27;;;;;;;4.00;1.52;;;21.30;54.20;;;;;;4983210;28;20141;-61
2021/10/24 11:32:15;;;;;;;3.10;1.70;;;21.30;54.20;;;;;;4981407;28;20129;-56
2021/10/24 11:34:40;;;;;;;3.70;1.50;;;21.40;54.30;;;;;;4975880;28;20034;-55
2021/10/24 11:37:07;;;;;;;2.88;1.45;;;21.40;54.20;;;;;;4985122;28;20044;-53
2021/10/24 11:39:33;;;;;;;3.08;1.55;;;21.40;54.10;;;;;;4981385;28;20454;-54
2021/10/24 11:42:15;;;;;;;5.40;2.00;;;21.40;54.20;;;;;;4985417;28;20053;-55
2021/10/24 11:44:44;;;;;;;4.10;1.33;;;21.40;54.20;;;;;;4976520;28;20045;-54
2021/10/24 11:47:12;;;;;;;3.70;1.55;;;21.40;54.10;;;;;;4976746;28;20046;-58
2021/10/24 11:49:55;;;;;;;3.10;1.50;;;21.40;54.10;;;;;;4984701;28;20038;-50
2021/10/24 11:52:23;;;;;;;2.40;1.40;;;21.40;54.10;;;;;;4980832;28;20077;-51
2021/10/24 11:55:14;;;;;;;2.35;1.33;;;21.40;54.10;;;;;;4973449;28;20606;-51
2021/10/24 12:03:24;;;;;;;2.75;1.52;;;21.50;54.20;;;;;;4978683;28;20072;-60
2021/10/24 12:05:50;;;;;;;2.72;1.50;;;21.50;54.30;;;;;;4982483;28;20058;-53
2021/10/24 12:08:16;;;;;;;4.75;1.42;;;21.50;54.30;;;;;;4983550;28;20057;-57
2021/10/24 12:10:52;;;;;;;3.15;1.48;;;21.50;54.30;;;;;;4982356;28;20048;-60
2021/10/24 12:13:32;;;;;;;3.65;1.63;;;21.50;54.30;;;;;;4980975;28;20045;-57
2021/10/24 12:15:58;;;;;;;2.50;1.42;;;21.50;54.40;;;;;;4971087;28;20113;-59
2021/10/24 12:18:33;;;;;;;2.90;1.55;;;21.50;54.30;;;;;;4976431;28;20715;-58
2021/10/24 12:21:01;;;;;;;3.05;1.50;;;21.50;54.40;;;;;;4979802;28;20100;-60
2021/10/24 12:23:36;;;;;;;2.70;1.50;;;21.60;54.50;;;;;;4978270;28;20843;-56
2021/10/24 12:26:06;;;;;;;4.40;1.70;;;21.60;54.50;;;;;;4982455;28;20577;-58
2021/10/24 12:28:41;;;;;;;2.75;1.40;;;21.60;54.50;;;;;;4982697;28;20778;-56
2021/10/24 12:31:14;;;;;;;3.08;1.70;;;21.60;54.50;;;;;;4979055;28;20852;-56
2021/10/24 12:33:41;;;;;;;2.47;1.40;;;21.60;54.50;;;;;;4979321;28;20034;-54
2021/10/24 12:36:14;;;;;;;3.03;1.40;;;21.60;54.50;;;;;;4984439;28;20492;-55
2021/10/24 12:38:58;;;;;;;3.80;1.63;;;21.60;54.50;;;;;;4989306;28;20525;-55
2021/10/24 12:41:44;;;;;;;4.95;1.60;;;21.60;54.50;;;;;;4985418;28;20030;-57
2021/10/24 12:44:23;;;;;;;2.75;1.52;;;21.60;54.60;;;;;;4984588;28;20114;-54
2021/10/24 12:46:52;;;;;;;2.88;1.50;;;21.60;55.10;;;;;;4977597;28;20080;-60
2021/10/24 12:49:27;;;;;;;2.05;1.40;;;21.70;54.60;;;;;;4985156;28;20039;-59
2021/10/24 12:52:13;;;;;;;2.45;1.40;;;21.80;54.60;;;;;;4983775;28;20034;-57
2021/10/24 12:54:40;;;;;;;3.13;1.45;;;21.90;54.40;;;;;;4992236;28;20034;-55
2021/10/24 12:57:08;;;;;;;4.40;2.20;;;22.00;54.30;;;;;;4991909;28;20097;-53
2021/10/24 12:59:34;;;;;;;5.22;1.80;;;22.10;54.20;;;;;;4993005;28;20428;-60
2021/10/24 13:02:01;;;;;;;3.60;1.70;;;22.30;53.90;;;;;;4991738;28;20076;-56